Berea, Iowa
Current Conditions -  °F | °C
As of 4:15 PM on Sunday 21 Dec 2014 (Local Time) from KAIO Reporting Station
Haze Haze  
Wind Chill: 33°   Ceiling: 700
Heat Index: 41°   Visibility: 4mi
Dew Point: 39°   Wind: 15mph
Humidity: 93%   Direction: 190°S
Pressure: 29.76"   Gusts: 22mph
Location:  41.4595°N, 94.8127°W
Report Text: KAIO 212215Z AUTO 19013G19KT 4SM BR OVC007 05/04 A2976 RMK AO2
Loading
Personal Weather Stations






























Interactive Weather Map New forecast layout! Learn more

10-Day Weather Forecast

Advertisements
Track Severe Weather on mobile